Time;durP1;ratioP1;P1;durP2;ratioP2;P2;SDS_P1;SDS_P2;PMS_P1;PMS_P2;Temp;Humidity;BMP_temperature;BMP_pressure;BME280_temperature;BME280_humidity;BME280_pressure;Samples;Min_cycle;Max_cycle;Signal;HPM_P1;HPM_P2
2022/10/16 00:02:33;0.00;0.00;0.62;0.00;0.00;0.62;1.80;1.00;;;29.00;27.00;;;;;;2264932;61;20441;-65
2022/10/16 00:05:19;0.00;0.00;0.62;0.00;0.00;0.62;2.40;1.03;;;29.00;27.00;;;;;;2417810;53;20392;-65
2022/10/16 00:08:05;0.00;0.00;0.62;0.00;0.00;0.62;1.80;1.03;;;29.00;26.90;;;;;;2265297;61;20485;-65
2022/10/16 00:10:49;0.00;0.00;0.62;0.00;0.00;0.62;1.97;1.10;;;28.90;26.90;;;;;;2265211;61;20377;-65
2022/10/16 00:13:37;0.00;0.00;0.62;0.00;0.00;0.62;1.47;0.90;;;28.90;26.90;;;;;;2404021;53;20388;-65
2022/10/16 00:16:22;0.00;0.00;0.62;0.00;0.00;0.62;1.40;0.80;;;28.90;26.90;;;;;;2265548;61;20368;-66
2022/10/16 00:19:06;0.00;0.00;0.62;0.00;0.00;0.62;1.37;0.90;;;28.90;26.80;;;;;;2265069;61;20365;-64
2022/10/16 00:21:53;0.00;0.00;0.62;0.00;0.00;0.62;2.17;1.00;;;28.90;26.70;;;;;;2389272;53;20408;-64
2022/10/16 00:24:38;0.00;0.00;0.62;0.00;0.00;0.62;1.40;1.00;;;28.90;26.70;;;;;;2264652;61;20396;-66
2022/10/16 00:27:23;0.00;0.00;0.62;0.00;0.00;0.62;1.90;0.90;;;28.80;26.60;;;;;;2264339;61;20376;-64
2022/10/16 00:30:09;0.00;0.00;0.62;0.00;0.00;0.62;1.57;1.10;;;28.80;26.60;;;;;;2265049;61;20364;-66
2022/10/16 00:32:54;0.00;0.00;0.62;0.00;0.00;0.62;2.03;1.10;;;28.70;26.50;;;;;;2300192;61;20431;-65
2022/10/16 00:35:38;0.00;0.00;0.62;0.00;0.00;0.62;1.47;0.93;;;28.70;26.40;;;;;;2264205;61;20466;-64
2022/10/16 00:38:24;0.00;0.00;0.62;0.00;0.00;0.62;1.40;0.70;;;28.70;26.40;;;;;;2265529;61;20372;-65
2022/10/16 00:41:12;0.00;0.00;0.62;0.00;0.00;0.62;1.70;1.00;;;28.60;26.30;;;;;;2459930;45;20364;-64
2022/10/16 00:44:00;0.00;0.00;0.62;0.00;0.00;0.62;2.10;0.90;;;28.70;26.40;;;;;;2266928;61;20385;-65
2022/10/16 00:46:45;0.00;0.00;0.62;0.00;0.00;0.62;1.50;1.00;;;28.60;26.40;;;;;;2265155;61;20433;-65
2022/10/16 00:49:30;0.00;0.00;0.62;0.00;0.00;0.62;1.57;0.80;;;28.60;26.40;;;;;;2264505;61;20372;-64
2022/10/16 00:52:15;0.00;0.00;0.62;0.00;0.00;0.62;1.63;0.90;;;28.60;26.40;;;;;;2416500;53;20420;-65
2022/10/16 00:55:04;0.00;0.00;0.62;0.00;0.00;0.62;1.40;0.90;;;28.50;26.40;;;;;;2265200;61;20392;-65
2022/10/16 00:57:50;0.00;0.00;0.62;0.00;0.00;0.62;1.50;0.80;;;28.50;26.50;;;;;;2264917;61;20368;-66
2022/10/16 01:00:35;0.00;0.00;0.62;0.00;0.00;0.62;5.40;1.07;;;28.50;26.50;;;;;;2266111;61;20402;-65
2022/10/16 01:03:27;0.00;0.00;0.62;0.00;0.00;0.62;1.60;1.10;;;28.50;26.50;;;;;;2265590;61;20364;-65
2022/10/16 01:06:26;0.00;0.00;0.62;0.00;0.00;0.62;1.23;0.70;;;28.40;26.40;;;;;;2265520;61;20619;-65
2022/10/16 01:09:17;0.00;0.00;0.62;0.00;0.00;0.62;1.70;1.00;;;28.50;26.50;;;;;;2265738;61;20435;-66
2022/10/16 01:12:10;0.00;0.00;0.62;0.00;0.00;0.62;1.27;0.73;;;28.40;26.40;;;;;;2264837;61;20361;-65
2022/10/16 01:15:00;0.00;0.00;0.62;0.00;0.00;0.62;2.27;0.80;;;28.40;26.50;;;;;;2436380;53;20385;-65
2022/10/16 01:17:51;0.00;0.00;0.62;0.00;0.00;0.62;2.50;1.00;;;28.40;26.50;;;;;;2265422;61;20632;-65
2022/10/16 01:20:42;0.00;0.00;0.62;0.00;0.00;0.62;1.70;0.90;;;28.40;27.00;;;;;;2265381;61;20517;-65
2022/10/16 01:23:44;0.00;0.00;0.62;0.00;0.00;0.62;1.40;0.80;;;28.40;26.50;;;;;;2264956;61;20442;-65
2022/10/16 01:26:44;0.00;0.00;0.62;0.00;0.00;0.62;1.60;1.00;;;28.40;26.50;;;;;;2396480;53;20365;-65
2022/10/16 01:29:37;0.00;0.00;0.62;0.00;0.00;0.62;1.53;0.93;;;28.30;26.50;;;;;;2266033;61;20728;-65
2022/10/16 01:32:33;0.00;0.00;0.62;0.00;0.00;0.62;1.40;0.90;;;28.30;26.50;;;;;;2265512;61;20760;-65
2022/10/16 01:35:25;0.00;0.00;0.62;0.00;0.00;0.62;1.90;1.00;;;28.30;26.60;;;;;;2265261;61;20404;-65
2022/10/16 01:38:16;0.00;0.00;0.62;0.00;0.00;0.62;1.43;0.90;;;28.30;26.60;;;;;;2265704;61;20637;-65
2022/10/16 01:41:07;0.00;0.00;0.62;0.00;0.00;0.62;2.27;1.30;;;28.30;26.60;;;;;;2414423;53;20419;-65
2022/10/16 01:44:01;0.00;0.00;0.62;0.00;0.00;0.62;1.60;0.97;;;28.30;26.60;;;;;;2265889;61;20392;-64
2022/10/16 01:46:52;0.00;0.00;0.62;0.00;0.00;0.62;1.50;0.90;;;28.30;26.60;;;;;;2265659;61;20472;-64
2022/10/16 01:49:39;0.00;0.00;0.62;0.00;0.00;0.62;1.50;0.90;;;28.20;26.50;;;;;;2265054;61;20370;-65
2022/10/16 01:52:28;0.00;0.00;0.62;0.00;0.00;0.62;1.60;0.80;;;28.20;26.60;;;;;;2412459;53;20396;-64
2022/10/16 01:55:24;0.00;0.00;0.62;0.00;0.00;0.62;1.40;0.83;;;28.20;26.60;;;;;;2265568;61;20424;-64
2022/10/16 01:58:11;0.00;0.00;0.62;0.00;0.00;0.62;2.37;1.00;;;28.20;26.60;;;;;;2265228;61;20484;-64
2022/10/16 02:00:56;0.00;0.00;0.62;0.00;0.00;0.62;1.20;0.67;;;28.20;26.60;;;;;;2265628;61;20399;-64
2022/10/16 02:03:45;0.00;0.00;0.62;0.00;0.00;0.62;1.70;0.90;;;28.10;26.50;;;;;;2418245;53;20397;-64
2022/10/16 02:06:30;0.00;0.00;0.62;0.00;0.00;0.62;2.00;0.80;;;28.20;26.60;;;;;;2265818;61;20813;-64
2022/10/16 02:09:16;0.00;0.00;0.62;0.00;0.00;0.62;1.97;1.20;;;28.20;26.70;;;;;;2265391;61;20628;-64
2022/10/16 02:12:09;0.00;0.00;0.62;0.00;0.00;0.62;1.60;0.90;;;28.20;27.20;;;;;;2395747;53;20429;-64
2022/10/16 02:14:54;0.00;0.00;0.62;0.00;0.00;0.62;2.27;1.00;;;28.20;27.20;;;;;;2265304;61;20408;-65
2022/10/16 02:17:39;0.00;0.00;0.62;0.00;0.00;0.62;2.03;1.00;;;28.10;26.60;;;;;;2265537;61;20748;-64
2022/10/16 02:20:32;0.00;0.00;0.62;0.00;0.00;0.62;1.50;0.87;;;28.10;26.60;;;;;;2265281;61;20445;-64
2022/10/16 02:23:27;0.00;0.00;0.62;0.00;0.00;0.62;1.43;0.97;;;28.10;26.60;;;;;;2459712;45;20373;-65
2022/10/16 02:26:17;0.00;0.00;0.62;0.00;0.00;0.62;2.20;0.90;;;28.10;26.60;;;;;;2264865;61;20366;-65
2022/10/16 02:29:08;0.00;0.00;0.62;0.00;0.00;0.62;1.37;0.90;;;28.10;26.60;;;;;;2265649;61;20373;-64
2022/10/16 02:31:58;0.00;0.00;0.62;0.00;0.00;0.62;1.87;1.20;;;28.10;26.70;;;;;;2265538;61;20376;-64
2022/10/16 02:34:44;0.00;0.00;0.62;0.00;0.00;0.62;2.20;1.17;;;28.10;26.70;;;;;;2385348;53;20393;-64
2022/10/16 02:37:33;0.00;0.00;0.62;0.00;0.00;0.62;1.90;0.93;;;28.10;26.70;;;;;;2265548;61;20772;-65
2022/10/16 02:40:18;0.00;0.00;0.62;0.00;0.00;0.62;2.23;0.90;;;28.00;26.60;;;;;;2265378;61;20369;-64
2022/10/16 02:43:05;0.00;0.00;0.62;0.00;0.00;0.62;2.33;1.20;;;28.00;26.70;;;;;;2265615;61;20561;-64
2022/10/16 02:45:50;0.00;0.00;0.62;0.00;0.00;0.62;2.00;0.90;;;28.00;26.60;;;;;;2414601;53;20434;-64
2022/10/16 02:48:35;0.00;0.00;0.62;0.00;0.00;0.62;1.40;1.00;;;28.00;26.70;;;;;;2264863;61;20792;-64
2022/10/16 02:51:20;0.00;0.00;0.62;0.00;0.00;0.62;2.70;1.20;;;28.00;26.70;;;;;;2265843;61;20368;-64
2022/10/16 02:54:06;0.00;0.00;0.62;0.00;0.00;0.62;1.47;0.93;;;27.90;26.70;;;;;;2400155;53;20401;-65
2022/10/16 02:56:51;0.00;0.00;0.62;0.00;0.00;0.62;1.97;1.20;;;27.90;26.70;;;;;;2264917;61;20369;-65
2022/10/16 02:59:36;0.00;0.00;0.62;0.00;0.00;0.62;3.60;1.30;;;27.90;26.70;;;;;;2265374;61;20394;-66
2022/10/16 03:02:21;0.00;0.00;0.62;0.00;0.00;0.62;1.60;0.90;;;27.90;26.70;;;;;;2392559;53;20353;-66
2022/10/16 03:05:06;0.00;0.00;0.62;0.00;0.00;0.62;1.70;0.90;;;27.90;26.80;;;;;;2265655;61;20654;-66
2022/10/16 03:07:52;0.00;0.00;0.62;0.00;0.00;0.62;1.70;0.97;;;27.80;26.70;;;;;;2265042;61;20369;-65
2022/10/16 03:10:38;0.00;0.00;0.62;0.00;0.00;0.62;1.73;1.10;;;27.90;26.80;;;;;;2264643;61;20460;-65
2022/10/16 03:13:23;0.00;0.00;0.62;0.00;0.00;0.62;3.00;1.23;;;27.80;26.70;;;;;;2265589;61;20630;-65
2022/10/16 03:16:08;0.00;0.00;0.62;0.00;0.00;0.62;1.40;0.90;;;27.80;26.70;;;;;;2265241;61;20361;-65
2022/10/16 03:18:52;0.00;0.00;0.62;0.00;0.00;0.62;2.63;1.20;;;27.80;26.80;;;;;;2264720;61;20369;-66
2022/10/16 03:21:37;0.00;0.00;0.62;0.00;0.00;0.62;1.70;1.10;;;27.80;26.80;;;;;;2413000;53;20757;-66
2022/10/16 03:24:22;0.00;0.00;0.62;0.00;0.00;0.62;2.03;1.20;;;27.80;26.80;;;;;;2265330;61;20439;-66
2022/10/16 03:27:08;0.00;0.00;0.62;0.00;0.00;0.62;2.43;1.27;;;27.80;26.80;;;;;;2265030;61;20774;-65
2022/10/16 03:29:53;0.00;0.00;0.62;0.00;0.00;0.62;2.10;0.93;;;27.80;26.80;;;;;;2265336;61;20369;-65
2022/10/16 03:32:37;0.00;0.00;0.62;0.00;0.00;0.62;1.40;1.00;;;27.80;26.90;;;;;;2264069;61;20484;-65
2022/10/16 03:35:23;0.00;0.00;0.62;0.00;0.00;0.62;1.97;1.17;;;27.80;26.80;;;;;;2265612;61;20405;-65
2022/10/16 03:38:08;0.00;0.00;0.62;0.00;0.00;0.62;1.97;1.10;;;27.70;26.80;;;;;;2265502;61;20729;-65
2022/10/16 03:40:53;0.00;0.00;0.62;0.00;0.00;0.62;2.73;1.13;;;27.70;26.80;;;;;;2415305;53;20358;-65
2022/10/16 03:43:39;0.00;0.00;0.62;0.00;0.00;0.62;1.83;1.10;;;27.70;26.80;;;;;;2265314;61;20372;-66
2022/10/16 03:46:24;0.00;0.00;0.62;0.00;0.00;0.62;1.50;0.90;;;27.70;26.90;;;;;;2265356;61;20597;-65
2022/10/16 03:49:08;0.00;0.00;0.62;0.00;0.00;0.62;1.50;1.00;;;27.70;26.90;;;;;;2397575;53;20423;-65
2022/10/16 03:51:54;0.00;0.00;0.62;0.00;0.00;0.62;1.50;1.10;;;27.70;26.90;;;;;;2265331;61;20419;-65
2022/10/16 03:54:39;0.00;0.00;0.62;0.00;0.00;0.62;1.40;0.93;;;27.70;26.90;;;;;;2264280;61;20427;-65
2022/10/16 03:57:24;0.00;0.00;0.62;0.00;0.00;0.62;2.13;1.00;;;27.70;26.90;;;;;;2265673;61;20361;-65
2022/10/16 04:00:12;0.00;0.00;0.62;0.00;0.00;0.62;1.80;1.03;;;27.70;26.90;;;;;;2277123;61;20435;-65
2022/10/16 04:02:57;0.00;0.00;0.62;0.00;0.00;0.62;1.40;0.90;;;27.70;26.90;;;;;;2264684;61;20380;-65
2022/10/16 04:05:42;0.00;0.00;0.62;0.00;0.00;0.62;3.97;1.30;;;27.70;26.90;;;;;;2265509;61;20682;-64
2022/10/16 04:08:27;0.00;0.00;0.62;0.00;0.00;0.62;2.00;1.03;;;27.70;27.00;;;;;;2418854;53;20360;-65
2022/10/16 04:11:12;0.00;0.00;0.62;0.00;0.00;0.62;1.93;1.10;;;27.70;27.00;;;;;;2264799;61;20440;-65
2022/10/16 04:13:57;0.00;0.00;0.62;0.00;0.00;0.62;1.70;0.90;;;27.60;27.50;;;;;;2265058;61;20396;-65
2022/10/16 04:16:43;0.00;0.00;0.62;0.00;0.00;0.62;1.70;0.97;;;27.60;26.90;;;;;;2402183;53;20528;-65
2022/10/16 04:19:28;0.00;0.00;0.62;0.00;0.00;0.62;1.40;1.00;;;27.60;26.90;;;;;;2265444;61;20369;-65
2022/10/16 04:22:13;0.00;0.00;0.62;0.00;0.00;0.62;2.27;1.10;;;27.60;27.00;;;;;;2265288;61;20369;-65
2022/10/16 04:24:58;0.00;0.00;0.62;0.00;0.00;0.62;2.10;1.33;;;27.60;27.00;;;;;;2380912;53;20428;-65
2022/10/16 04:27:43;0.00;0.00;0.62;0.00;0.00;0.62;1.70;0.97;;;27.60;27.00;;;;;;2265458;61;20753;-65
2022/10/16 04:30:28;0.00;0.00;0.62;0.00;0.00;0.62;1.73;1.00;;;27.60;27.10;;;;;;2264744;61;20729;-65
2022/10/16 04:33:14;0.00;0.00;0.62;0.00;0.00;0.62;2.30;1.10;;;27.50;27.10;;;;;;2264552;61;20751;-65
2022/10/16 04:36:01;0.00;0.00;0.62;0.00;0.00;0.62;1.80;1.00;;;27.50;27.20;;;;;;2265003;61;20368;-65
2022/10/16 04:38:45;0.00;0.00;0.62;0.00;0.00;0.62;1.80;1.17;;;27.50;27.20;;;;;;2264917;61;20748;-65
2022/10/16 04:41:30;0.00;0.00;0.62;0.00;0.00;0.62;2.40;1.07;;;27.50;27.20;;;;;;2265451;61;20407;-65
2022/10/16 04:44:15;0.00;0.00;0.62;0.00;0.00;0.62;1.77;1.00;;;27.50;27.20;;;;;;2412658;53;20381;-65
2022/10/16 04:47:00;0.00;0.00;0.62;0.00;0.00;0.62;3.03;1.20;;;27.40;27.30;;;;;;2264478;61;20365;-65
2022/10/16 04:49:46;0.00;0.00;0.62;0.00;0.00;0.62;1.80;1.00;;;27.40;27.30;;;;;;2265245;61;20411;-65
2022/10/16 04:52:31;0.00;0.00;0.62;0.00;0.00;0.62;1.63;1.10;;;27.40;27.30;;;;;;2559523;45;20369;-65
2022/10/16 04:55:16;0.00;0.00;0.62;0.00;0.00;0.62;2.00;1.10;;;27.40;27.30;;;;;;2264597;61;20397;-65
2022/10/16 04:58:00;0.00;0.00;0.62;0.00;0.00;0.62;1.80;0.90;;;27.40;27.80;;;;;;2265017;61;20388;-64
2022/10/16 05:00:46;0.00;0.00;0.62;0.00;0.00;0.62;2.23;1.20;;;27.30;27.30;;;;;;2265005;61;20384;-65
2022/10/16 05:03:31;0.00;0.00;0.62;0.00;0.00;0.62;2.17;1.00;;;27.40;27.40;;;;;;2264997;61;20357;-65
2022/10/16 05:06:17;0.00;0.00;0.62;0.00;0.00;0.62;1.70;1.00;;;27.30;27.30;;;;;;2265007;61;20693;-65
2022/10/16 05:09:02;0.00;0.00;0.62;0.00;0.00;0.62;1.60;1.00;;;27.30;27.30;;;;;;2264483;61;20361;-65
2022/10/16 05:11:47;0.00;0.00;0.62;0.00;0.00;0.62;1.40;0.80;;;27.30;27.30;;;;;;2410874;53;20361;-65
2022/10/16 05:14:31;0.00;0.00;0.62;0.00;0.00;0.62;1.90;1.17;;;27.30;27.30;;;;;;2264358;61;20388;-65
2022/10/16 05:17:16;0.00;0.00;0.62;0.00;0.00;0.62;1.80;1.20;;;27.30;27.40;;;;;;2264539;61;20483;-64
2022/10/16 05:20:03;0.00;0.00;0.62;0.00;0.00;0.62;1.90;1.10;;;27.30;27.40;;;;;;2398816;53;20360;-64
2022/10/16 05:22:49;0.00;0.00;0.62;0.00;0.00;0.62;1.50;0.93;;;27.30;27.40;;;;;;2261521;61;20428;-65
2022/10/16 05:25:34;0.00;0.00;0.62;0.00;0.00;0.62;1.70;0.90;;;27.30;27.40;;;;;;2264897;61;20392;-65
2022/10/16 05:28:20;0.00;0.00;0.62;0.00;0.00;0.62;1.60;0.80;;;27.30;27.40;;;;;;2265064;61;20394;-65
2022/10/16 05:31:06;0.00;0.00;0.62;0.00;0.00;0.62;2.67;1.00;;;27.30;27.40;;;;;;2264080;61;20610;-64
2022/10/16 05:33:51;0.00;0.00;0.62;0.00;0.00;0.62;1.40;1.00;;;27.30;27.40;;;;;;2265068;61;20431;-64
2022/10/16 05:36:36;0.00;0.00;0.62;0.00;0.00;0.62;1.40;0.90;;;27.30;27.40;;;;;;2264955;61;20427;-64
2022/10/16 05:39:22;0.00;0.00;0.62;0.00;0.00;0.62;1.50;0.90;;;27.30;27.40;;;;;;2590762;45;20365;-65
2022/10/16 05:42:07;0.00;0.00;0.62;0.00;0.00;0.62;1.70;1.07;;;27.30;27.40;;;;;;2265356;61;20443;-65
2022/10/16 05:44:52;0.00;0.00;0.62;0.00;0.00;0.62;2.23;1.00;;;27.30;27.40;;;;;;2265578;61;20396;-65
2022/10/16 05:47:37;0.00;0.00;0.62;0.00;0.00;0.62;1.60;0.90;;;27.30;27.40;;;;;;2441551;45;20468;-65
2022/10/16 05:50:22;0.00;0.00;0.62;0.00;0.00;0.62;1.60;1.00;;;27.30;27.90;;;;;;2265750;61;20368;-65
2022/10/16 05:53:07;0.00;0.00;0.62;0.00;0.00;0.62;1.80;1.10;;;27.30;27.40;;;;;;2264575;61;20388;-64
2022/10/16 05:55:54;0.00;0.00;0.62;0.00;0.00;0.62;1.70;1.03;;;27.30;27.40;;;;;;2265838;61;20749;-65
2022/10/16 05:58:40;0.00;0.00;0.62;0.00;0.00;0.62;1.50;1.00;;;27.30;27.40;;;;;;2265723;61;20649;-65
2022/10/16 06:01:25;0.00;0.00;0.62;0.00;0.00;0.62;1.50;0.90;;;27.30;27.40;;;;;;2265287;61;20423;-65
2022/10/16 06:04:10;0.00;0.00;0.62;0.00;0.00;0.62;1.60;1.00;;;27.30;27.40;;;;;;2265525;61;20453;-65
2022/10/16 06:07:00;0.00;0.00;0.62;0.00;0.00;0.62;1.60;0.90;;;27.30;27.40;;;;;;2589068;45;20356;-65
2022/10/16 06:09:49;0.00;0.00;0.62;0.00;0.00;0.62;1.70;1.07;;;27.30;27.40;;;;;;2265343;61;20408;-65
2022/10/16 06:12:35;0.00;0.00;0.62;0.00;0.00;0.62;1.60;1.10;;;27.30;27.30;;;;;;2265336;61;20361;-65
2022/10/16 06:15:20;0.00;0.00;0.62;0.00;0.00;0.62;1.80;1.20;;;27.30;27.30;;;;;;2264947;61;20764;-65
2022/10/16 06:18:05;0.00;0.00;0.62;0.00;0.00;0.62;1.30;0.80;;;27.40;27.40;;;;;;2265893;61;20457;-65
2022/10/16 06:20:49;0.00;0.00;0.62;0.00;0.00;0.62;1.50;1.00;;;27.40;27.40;;;;;;2265483;61;20369;-64
2022/10/16 06:23:34;0.00;0.00;0.62;0.00;0.00;0.62;3.00;0.93;;;27.40;27.40;;;;;;2265078;61;20380;-65
2022/10/16 06:26:22;0.00;0.00;0.62;0.00;0.00;0.62;1.40;0.97;;;27.30;27.40;;;;;;2573221;45;20586;-65
2022/10/16 06:29:09;0.00;0.00;0.62;0.00;0.00;0.62;1.60;1.20;;;27.40;27.50;;;;;;2265635;61;20365;-65
2022/10/16 06:31:54;0.00;0.00;0.62;0.00;0.00;0.62;1.43;0.90;;;27.40;28.00;;;;;;2265016;61;21213;-65
2022/10/16 06:34:40;0.00;0.00;0.62;0.00;0.00;0.62;1.67;0.90;;;27.40;27.50;;;;;;2558042;45;20439;-65
2022/10/16 06:37:26;0.00;0.00;0.62;0.00;0.00;0.62;2.57;1.20;;;27.30;27.40;;;;;;2264672;61;20369;-65
2022/10/16 06:40:11;0.00;0.00;0.62;0.00;0.00;0.62;1.50;1.10;;;27.30;27.40;;;;;;2265927;61;20368;-65
2022/10/16 06:42:56;0.00;0.00;0.62;0.00;0.00;0.62;1.80;1.13;;;27.30;27.40;;;;;;2539572;45;20361;-65
2022/10/16 06:45:42;0.00;0.00;0.62;0.00;0.00;0.62;1.73;0.97;;;27.30;27.40;;;;;;2264834;61;20430;-65
2022/10/16 06:48:28;0.00;0.00;0.62;0.00;0.00;0.62;2.23;1.00;;;27.30;27.40;;;;;;2265653;61;20411;-65
2022/10/16 06:51:15;0.00;0.00;0.62;0.00;0.00;0.62;1.50;1.03;;;27.30;27.40;;;;;;2265604;61;20373;-66
2022/10/16 06:54:00;0.00;0.00;0.62;0.00;0.00;0.62;2.30;1.13;;;27.30;27.40;;;;;;2264919;61;20477;-62
2022/10/16 06:56:44;0.00;0.00;0.62;0.00;0.00;0.62;2.00;1.20;;;27.30;27.50;;;;;;2265155;61;20392;-65
2022/10/16 06:59:29;0.00;0.00;0.62;0.00;0.00;0.62;1.70;1.00;;;27.30;27.50;;;;;;2266696;61;20468;-65
2022/10/16 07:02:15;0.00;0.00;0.62;0.00;0.00;0.62;1.70;0.90;;;27.30;27.50;;;;;;2486336;45;20373;-66
2022/10/16 07:05:00;0.00;0.00;0.62;0.00;0.00;0.62;1.50;1.10;;;27.30;27.50;;;;;;2265375;61;20745;-65
2022/10/16 07:07:45;0.00;0.00;0.62;0.00;0.00;0.62;1.60;1.10;;;27.30;27.50;;;;;;2264730;61;20941;-65
2022/10/16 07:10:29;0.00;0.00;0.62;0.00;0.00;0.62;1.77;1.20;;;27.30;27.60;;;;;;2487291;45;20408;-64
2022/10/16 07:13:14;0.00;0.00;0.62;0.00;0.00;0.62;2.20;1.30;;;27.30;28.10;;;;;;2264908;61;20608;-66
2022/10/16 07:16:05;0.00;0.00;0.62;0.00;0.00;0.62;1.87;0.93;;;27.30;27.60;;;;;;2265267;61;20377;-67
2022/10/16 07:18:57;0.00;0.00;0.62;0.00;0.00;0.62;1.60;1.00;;;27.40;27.70;;;;;;2265504;61;20415;-68
2022/10/16 07:21:42;0.00;0.00;0.62;0.00;0.00;0.62;1.30;0.90;;;27.30;27.70;;;;;;2395267;53;20376;-63
2022/10/16 07:24:27;0.00;0.00;0.62;0.00;0.00;0.62;1.50;1.00;;;27.40;28.20;;;;;;2265644;61;20608;-64
2022/10/16 07:27:11;0.00;0.00;0.62;0.00;0.00;0.62;1.57;1.03;;;27.40;27.80;;;;;;2265360;61;20412;-64
2022/10/16 07:29:56;0.00;0.00;0.62;0.00;0.00;0.62;2.73;1.50;;;27.40;27.70;;;;;;2264855;61;20388;-66
2022/10/16 07:32:41;0.00;0.00;0.62;0.00;0.00;0.62;3.77;1.37;;;27.40;27.70;;;;;;2265235;61;20424;-65
2022/10/16 07:35:27;0.00;0.00;0.62;0.00;0.00;0.62;3.30;1.03;;;27.40;28.30;;;;;;2265163;61;20446;-65
2022/10/16 07:38:12;0.00;0.00;0.62;0.00;0.00;0.62;1.73;1.30;;;27.40;27.80;;;;;;2264878;61;20377;-65
2022/10/16 07:40:58;0.00;0.00;0.62;0.00;0.00;0.62;2.30;1.30;;;27.30;27.70;;;;;;2588212;45;20365;-66
2022/10/16 07:43:46;0.00;0.00;0.62;0.00;0.00;0.62;1.70;1.00;;;27.30;27.80;;;;;;2265105;61;20408;-62
2022/10/16 07:46:33;0.00;0.00;0.62;0.00;0.00;0.62;1.40;0.97;;;27.30;27.80;;;;;;2265831;61;20411;-66
2022/10/16 07:49:18;0.00;0.00;0.62;0.00;0.00;0.62;3.10;1.10;;;27.30;27.80;;;;;;2539697;45;20420;-65
2022/10/16 07:52:04;0.00;0.00;0.62;0.00;0.00;0.62;1.60;1.20;;;27.30;27.80;;;;;;2264739;61;20361;-65
2022/10/16 07:54:49;0.00;0.00;0.62;0.00;0.00;0.62;1.70;1.00;;;27.30;27.90;;;;;;2265447;61;20401;-63
2022/10/16 07:57:33;0.00;0.00;0.62;0.00;0.00;0.62;1.60;1.00;;;27.30;27.90;;;;;;2265094;61;20365;-67
2022/10/16 08:00:18;0.00;0.00;0.62;0.00;0.00;0.62;1.47;1.00;;;27.30;27.90;;;;;;2274278;58;20423;-65
2022/10/16 08:03:03;0.00;0.00;0.62;0.00;0.00;0.62;1.80;1.00;;;27.30;27.90;;;;;;2265342;61;20396;-66
2022/10/16 08:05:48;0.00;0.00;0.62;0.00;0.00;0.62;2.23;0.90;;;27.30;27.90;;;;;;2264950;61;20446;-67
2022/10/16 08:08:35;0.00;0.00;0.62;0.00;0.00;0.62;2.33;1.23;;;27.30;27.90;;;;;;2542540;45;20373;-66
2022/10/16 08:11:23;0.00;0.00;0.62;0.00;0.00;0.62;2.00;1.20;;;27.30;28.00;;;;;;2265384;61;20427;-65
2022/10/16 08:14:11;0.00;0.00;0.62;0.00;0.00;0.62;1.50;1.00;;;27.30;28.00;;;;;;2264232;61;20446;-65
2022/10/16 08:16:57;0.00;0.00;0.62;0.00;0.00;0.62;2.17;1.17;;;27.30;28.00;;;;;;2265606;61;20392;-64
2022/10/16 08:19:45;0.00;0.00;0.62;0.00;0.00;0.62;1.73;1.10;;;27.30;28.00;;;;;;2265348;61;20392;-63
2022/10/16 08:22:29;0.00;0.00;0.62;0.00;0.00;0.62;1.70;1.10;;;27.30;28.00;;;;;;2264687;61;20431;-64
2022/10/16 08:25:15;0.00;0.00;0.62;0.00;0.00;0.62;2.17;1.00;;;27.30;28.00;;;;;;2265243;61;20431;-65
2022/10/16 08:28:00;0.00;0.00;0.62;0.00;0.00;0.62;2.10;1.10;;;27.30;28.00;;;;;;2405258;53;20412;-64
2022/10/16 08:30:45;0.00;0.00;0.62;0.00;0.00;0.62;2.23;0.93;;;27.30;28.00;;;;;;2265600;61;20404;-64
2022/10/16 08:33:29;0.00;0.00;0.62;0.00;0.00;0.62;1.90;0.90;;;27.40;28.00;;;;;;2341773;45;20465;-66
2022/10/16 08:36:15;0.00;0.00;0.62;0.00;0.00;0.62;1.47;0.80;;;27.40;28.00;;;;;;2453415;45;20361;-66
2022/10/16 08:39:00;0.00;0.00;0.62;0.00;0.00;0.62;1.40;0.83;;;27.40;28.00;;;;;;2265459;61;20481;-65
2022/10/16 08:42:33;0.00;0.00;0.62;0.00;0.00;0.62;1.40;0.80;;;27.40;28.00;;;;;;2264196;61;20365;-66
2022/10/16 08:45:32;0.00;0.00;0.62;0.00;0.00;0.62;1.60;0.77;;;27.40;28.00;;;;;;2265043;61;20392;-65
2022/10/16 08:48:26;0.00;0.00;0.62;0.00;0.00;0.62;1.40;0.80;;;27.50;28.10;;;;;;2265213;61;20628;-64
2022/10/16 08:51:18;0.00;0.00;0.62;0.00;0.00;0.62;1.50;0.93;;;27.50;28.10;;;;;;2264705;61;20416;-65
2022/10/16 08:54:06;0.00;0.00;0.62;0.00;0.00;0.62;1.30;0.83;;;27.50;28.10;;;;;;2540323;45;20393;-64
2022/10/16 08:56:51;0.00;0.00;0.62;0.00;0.00;0.62;1.80;1.00;;;27.60;28.20;;;;;;2265021;61;20389;-63
2022/10/16 08:59:37;0.00;0.00;0.62;0.00;0.00;0.62;1.90;1.10;;;27.70;28.20;;;;;;2264637;61;20403;-64
2022/10/16 09:02:32;0.00;0.00;0.62;0.00;0.00;0.62;1.70;1.00;;;27.70;28.20;;;;;;2265250;61;20376;-69
2022/10/16 09:05:46;0.00;0.00;0.62;0.00;0.00;0.62;2.03;0.90;;;27.70;28.20;;;;;;2484956;45;20464;-63
2022/10/16 09:08:40;0.00;0.00;0.62;0.00;0.00;0.62;1.57;0.80;;;27.70;28.20;;;;;;2565349;45;20388;-67
2022/10/16 09:11:39;0.00;0.00;0.62;0.00;0.00;0.62;3.13;0.93;;;27.80;28.30;;;;;;2264466;61;20368;-65
2022/10/16 09:14:46;0.00;0.00;0.62;0.00;0.00;0.62;1.90;1.03;;;27.80;28.30;;;;;;2264562;61;20399;-66
2022/10/16 09:17:45;0.00;0.00;0.62;0.00;0.00;0.62;1.30;0.70;;;27.80;28.30;;;;;;2265676;61;20388;-65
2022/10/16 09:20:48;0.00;0.00;0.62;0.00;0.00;0.62;1.73;0.90;;;27.80;28.30;;;;;;2267477;61;20372;-65
2022/10/16 09:23:36;0.00;0.00;0.62;0.00;0.00;0.62;2.00;1.17;;;27.90;28.30;;;;;;2264327;61;20407;-63
2022/10/16 09:26:22;0.00;0.00;0.62;0.00;0.00;0.62;1.50;0.90;;;28.00;28.30;;;;;;2449439;53;20419;-65
2022/10/16 09:29:08;0.00;0.00;0.62;0.00;0.00;0.62;1.40;0.70;;;28.00;28.30;;;;;;2264894;61;20713;-64
2022/10/16 09:32:10;0.00;0.00;0.62;0.00;0.00;0.62;1.40;0.80;;;28.00;28.30;;;;;;2265390;61;20396;-64
2022/10/16 09:34:57;0.00;0.00;0.62;0.00;0.00;0.62;2.23;0.80;;;28.00;28.30;;;;;;2265153;61;20388;-64
2022/10/16 09:37:44;0.00;0.00;0.62;0.00;0.00;0.62;1.50;1.00;;;28.10;28.30;;;;;;2266193;61;20585;-64
2022/10/16 09:40:32;0.00;0.00;0.62;0.00;0.00;0.62;1.70;1.10;;;28.10;28.30;;;;;;2265921;61;20408;-63
2022/10/16 09:43:30;0.00;0.00;0.62;0.00;0.00;0.62;1.30;0.70;;;28.10;28.20;;;;;;2264877;61;20578;-64
2022/10/16 09:46:26;0.00;0.00;0.62;0.00;0.00;0.62;2.07;0.80;;;28.10;28.20;;;;;;2265739;61;20365;-63
2022/10/16 09:49:23;0.00;0.00;0.62;0.00;0.00;0.62;1.53;0.90;;;28.20;28.20;;;;;;2266412;61;20392;-64
2022/10/16 09:52:14;0.00;0.00;0.62;0.00;0.00;0.62;1.20;0.67;;;28.20;28.30;;;;;;2265635;61;20407;-66
2022/10/16 09:55:02;0.00;0.00;0.62;0.00;0.00;0.62;1.40;0.70;;;28.30;28.30;;;;;;2265689;61;20405;-64
2022/10/16 09:57:50;0.00;0.00;0.62;0.00;0.00;0.62;1.30;0.70;;;28.30;28.30;;;;;;2265412;61;20377;-63
2022/10/16 10:00:36;0.00;0.00;0.62;0.00;0.00;0.62;1.50;0.90;;;28.30;28.80;;;;;;2266060;61;20380;-65
2022/10/16 10:03:35;0.00;0.00;0.62;0.00;0.00;0.62;1.50;0.80;;;28.40;28.30;;;;;;2265864;61;20365;-64
2022/10/16 10:06:27;0.00;0.00;0.62;0.00;0.00;0.62;1.40;0.80;;;28.40;28.30;;;;;;2265067;61;20357;-64
2022/10/16 10:09:22;0.00;0.00;0.62;0.00;0.00;0.62;1.93;0.80;;;28.50;28.30;;;;;;2265376;61;20741;-64
2022/10/16 10:12:19;0.00;0.00;0.62;0.00;0.00;0.62;1.40;0.80;;;28.50;28.20;;;;;;2265425;61;20357;-64
2022/10/16 10:15:10;0.00;0.00;0.62;0.00;0.00;0.62;3.10;1.33;;;28.50;28.20;;;;;;2265932;61;20612;-64
2022/10/16 10:17:57;0.00;0.00;0.62;0.00;0.00;0.62;1.60;1.00;;;28.50;28.20;;;;;;2265905;61;20589;-64
2022/10/16 10:20:42;0.00;0.00;0.62;0.00;0.00;0.62;1.30;0.70;;;28.60;28.20;;;;;;2265225;61;20361;-66
2022/10/16 10:23:30;0.00;0.00;0.62;0.00;0.00;0.62;1.60;0.80;;;28.60;28.20;;;;;;2265761;61;20357;-64
2022/10/16 10:26:22;0.00;0.00;0.62;0.00;0.00;0.62;1.30;0.67;;;28.60;28.20;;;;;;2266087;61;20369;-63
2022/10/16 10:29:17;0.00;0.00;0.62;0.00;0.00;0.62;2.23;0.70;;;28.60;28.10;;;;;;2265388;61;20408;-64
2022/10/16 10:32:16;0.00;0.00;0.62;0.00;0.00;0.62;2.33;0.80;;;28.70;28.20;;;;;;2265887;61;20733;-64
2022/10/16 10:35:15;0.00;0.00;0.62;0.00;0.00;0.62;1.53;0.70;;;28.70;28.20;;;;;;2265110;61;20393;-64
2022/10/16 10:38:16;0.00;0.00;0.62;0.00;0.00;0.62;1.37;0.70;;;28.70;28.10;;;;;;2266074;61;20756;-64
2022/10/16 10:41:24;0.00;0.00;0.62;0.00;0.00;0.62;1.30;0.73;;;28.80;28.10;;;;;;2266106;61;20396;-63
2022/10/16 10:44:21;0.00;0.00;0.62;0.00;0.00;0.62;1.40;0.90;;;28.80;28.10;;;;;;2266037;61;20449;-64
2022/10/16 10:47:20;0.00;0.00;0.62;0.00;0.00;0.62;1.87;0.80;;;28.80;28.00;;;;;;2265813;61;20412;-64
2022/10/16 10:50:16;0.00;0.00;0.62;0.00;0.00;0.62;1.40;0.80;;;28.90;28.00;;;;;;2265035;61;20708;-64
2022/10/16 10:53:12;0.00;0.00;0.62;0.00;0.00;0.62;1.83;0.80;;;28.90;28.00;;;;;;2265751;61;20381;-64
2022/10/16 10:56:15;0.00;0.00;0.62;0.00;0.00;0.62;1.20;0.67;;;28.90;28.00;;;;;;2265951;61;20357;-64
2022/10/16 10:59:29;0.00;0.00;0.62;0.00;0.00;0.62;1.30;0.70;;;28.90;28.10;;;;;;2266178;61;20681;-64
2022/10/16 11:02:22;0.00;0.00;0.62;0.00;0.00;0.62;1.60;0.70;;;29.00;28.10;;;;;;2265773;61;20384;-64
2022/10/16 11:05:30;0.00;0.00;0.62;0.00;0.00;0.62;1.50;0.80;;;29.00;28.20;;;;;;2265224;61;20442;-64